createdAt,value
2017-04-04T00:01:13.370Z,0
2017-04-04T00:02:27.389Z,0
2017-04-04T00:03:41.329Z,0
2017-04-04T00:04:55.243Z,0
2017-04-04T00:06:09.510Z,0
2017-04-04T00:07:23.479Z,0
2017-04-04T00:08:37.393Z,0
2017-04-04T00:09:51.750Z,0
2017-04-04T00:11:05.577Z,0
2017-04-04T00:12:19.222Z,0
2017-04-04T00:13:32.832Z,0
2017-04-04T00:14:46.434Z,0
2017-04-04T00:15:59.969Z,0
2017-04-04T00:17:14.327Z,0
2017-04-04T00:18:27.898Z,0
2017-04-04T00:19:41.758Z,0
2017-04-04T00:20:55.627Z,0
2017-04-04T00:22:09.200Z,0
2017-04-04T00:23:23.551Z,0
2017-04-04T00:24:37.079Z,0
2017-04-04T00:25:50.592Z,0
2017-04-04T00:27:04.126Z,0
2017-04-04T00:28:18.069Z,0
2017-04-04T00:29:32.441Z,0
2017-04-04T00:30:46.346Z,0
2017-04-04T00:32:00.199Z,0
2017-04-04T00:33:14.157Z,0
2017-04-04T00:34:28.024Z,0
2017-04-04T00:35:42.631Z,0
2017-04-04T00:36:56.211Z,0
2017-04-04T00:38:09.752Z,0
2017-04-04T00:39:25.834Z,0
2017-04-04T00:40:39.401Z,0
2017-04-04T00:41:54.452Z,0
2017-04-04T00:43:07.992Z,0
2017-04-04T00:44:21.599Z,0
2017-04-04T00:45:35.129Z,0
2017-04-04T00:46:48.658Z,0
2017-04-04T00:48:02.627Z,0
2017-04-04T00:49:16.239Z,0
2017-04-04T00:50:29.827Z,0
2017-04-04T00:51:43.382Z,0
2017-04-04T00:52:57.533Z,0
2017-04-04T00:54:11.492Z,0
2017-04-04T00:55:25.362Z,0
2017-04-04T00:56:39.046Z,0
2017-04-04T00:57:52.580Z,0
2017-04-04T00:59:06.101Z,0
2017-04-04T01:00:20.067Z,0
2017-04-04T01:01:33.645Z,0
2017-04-04T01:02:47.499Z,0
2017-04-04T01:04:01.016Z,0
2017-04-04T01:05:14.910Z,0
2017-04-04T01:06:28.783Z,0
2017-04-04T01:07:42.316Z,0
2017-04-04T01:08:56.171Z,0
2017-04-04T01:10:09.693Z,0
2017-04-04T01:11:23.264Z,0
2017-04-04T01:12:37.105Z,0
2017-04-04T01:13:50.707Z,0
2017-04-04T01:15:04.260Z,0
2017-04-04T01:16:17.812Z,0
2017-04-04T01:17:31.395Z,0
2017-04-04T01:18:45.209Z,0
2017-04-04T01:19:58.756Z,0
2017-04-04T01:21:12.329Z,0
2017-04-04T01:22:25.870Z,0
2017-04-04T01:23:39.376Z,0
2017-04-04T01:24:53.235Z,0
2017-04-04T01:26:07.122Z,0
2017-04-04T01:27:20.796Z,0
2017-04-04T01:28:34.651Z,0
2017-04-04T01:29:48.470Z,0
2017-04-04T01:31:02.310Z,0
2017-04-04T01:32:15.914Z,0
2017-04-04T01:33:29.486Z,0
2017-04-04T01:34:43.030Z,0
2017-04-04T01:35:56.937Z,0
2017-04-04T01:37:10.814Z,0
2017-04-04T01:38:24.329Z,0
2017-04-04T01:39:37.985Z,0
2017-04-04T01:40:51.512Z,0
2017-04-04T01:42:05.035Z,0
2017-04-04T01:43:18.921Z,0
2017-04-04T01:44:32.457Z,0
2017-04-04T01:45:46.215Z,0
2017-04-04T01:46:59.738Z,0
2017-04-04T01:48:13.649Z,0
2017-04-04T01:49:27.486Z,0
2017-04-04T01:50:41.015Z,0
2017-04-04T01:51:54.567Z,0
2017-04-04T01:53:08.197Z,0
2017-04-04T01:54:21.800Z,0
2017-04-04T01:55:37.851Z,0
2017-04-04T01:56:51.397Z,0
2017-04-04T01:58:04.985Z,0
2017-04-04T01:59:18.640Z,0
2017-04-04T02:00:32.229Z,0
2017-04-04T02:01:46.053Z,0
2017-04-04T02:02:59.958Z,0
2017-04-04T02:04:13.553Z,0
2017-04-04T02:05:27.064Z,0
2017-04-04T02:06:40.764Z,0
2017-04-04T02:07:54.930Z,0
2017-04-04T02:09:08.626Z,0
2017-04-04T02:10:22.162Z,0
2017-04-04T02:11:35.734Z,0
2017-04-04T02:12:49.256Z,0
2017-04-04T02:14:03.068Z,0
2017-04-04T02:15:16.672Z,0
2017-04-04T02:16:30.653Z,0
2017-04-04T02:17:44.182Z,0
2017-04-04T02:18:57.762Z,0
2017-04-04T02:20:11.615Z,0
2017-04-04T02:21:25.125Z,0
2017-04-04T02:22:38.670Z,0
2017-04-04T02:23:52.199Z,0
2017-04-04T02:25:06.239Z,0
2017-04-04T02:26:20.047Z,0
2017-04-04T02:27:33.620Z,0
2017-04-04T02:28:47.148Z,0
2017-04-04T02:30:00.682Z,0
2017-04-04T02:31:14.334Z,0
2017-04-04T02:32:28.465Z,0
2017-04-04T02:33:42.029Z,0
2017-04-04T02:34:55.582Z,0
2017-04-04T02:36:09.198Z,0
2017-04-04T02:37:22.755Z,0
2017-04-04T02:38:36.677Z,0
2017-04-04T02:39:50.541Z,0
2017-04-04T02:41:04.155Z,0
2017-04-04T02:42:17.721Z,0
2017-04-04T02:43:31.263Z,0
2017-04-04T02:44:46.480Z,0
2017-04-04T02:46:00.067Z,0
2017-04-04T02:47:13.588Z,0
2017-04-04T02:48:27.108Z,0
2017-04-04T02:49:40.643Z,0
2017-04-04T02:50:54.190Z,0
2017-04-04T02:52:07.759Z,0
2017-04-04T02:53:21.317Z,0
2017-04-04T02:54:34.853Z,0
2017-04-04T02:55:48.387Z,0
2017-04-04T02:57:02.244Z,0
2017-04-04T02:58:15.796Z,0
2017-04-04T02:59:31.811Z,0
2017-04-04T03:00:45.388Z,0
2017-04-04T03:02:00.729Z,0
2017-04-04T03:03:14.938Z,0
2017-04-04T03:04:28.524Z,0
2017-04-04T03:05:42.690Z,0
2017-04-04T03:06:56.409Z,0
2017-04-04T03:08:11.462Z,0
2017-04-04T03:09:27.038Z,0
2017-04-04T03:10:42.019Z,0
2017-04-04T03:11:58.720Z,0
2017-04-04T03:13:12.612Z,0
2017-04-04T03:14:26.707Z,0
2017-04-04T03:15:41.679Z,0
2017-04-04T03:16:57.234Z,0
2017-04-04T03:18:10.962Z,0
2017-04-04T03:19:24.492Z,0
2017-04-04T03:20:38.001Z,0
2017-04-04T03:21:51.831Z,0
2017-04-04T03:23:05.392Z,0
2017-04-04T03:24:18.903Z,0
2017-04-04T03:25:32.446Z,0
2017-04-04T03:26:45.971Z,0
2017-04-04T03:27:59.834Z,0
2017-04-04T03:29:13.341Z,0
2017-04-04T03:30:26.867Z,0
2017-04-04T03:31:40.404Z,0
2017-04-04T03:32:54.130Z,0
2017-04-04T03:34:07.980Z,0
2017-04-04T03:35:21.527Z,0
2017-04-04T03:36:35.087Z,0
2017-04-04T03:37:48.616Z,0
2017-04-04T03:39:02.251Z,0
2017-04-04T03:40:16.072Z,0
2017-04-04T03:41:29.758Z,0
2017-04-04T03:42:43.308Z,0
2017-04-04T03:43:56.901Z,0
2017-04-04T03:45:10.408Z,0
2017-04-04T03:46:24.219Z,0
2017-04-04T03:47:37.761Z,0
2017-04-04T03:48:51.590Z,0
2017-04-04T03:50:05.193Z,0
2017-04-04T03:51:18.739Z,0
2017-04-04T03:52:32.577Z,0
2017-04-04T03:53:46.097Z,0
2017-04-04T03:54:59.660Z,0
2017-04-04T03:56:13.254Z,0
2017-04-04T03:57:27.134Z,0
2017-04-04T03:58:40.999Z,0
2017-04-04T03:59:54.601Z,0
2017-04-04T04:01:08.295Z,0
2017-04-04T04:02:21.889Z,0
2017-04-04T04:03:37.019Z,0
2017-04-04T04:04:50.910Z,0
2017-04-04T04:06:04.422Z,0
2017-04-04T04:07:17.970Z,0
2017-04-04T04:08:31.512Z,0
2017-04-04T04:09:45.019Z,0
2017-04-04T04:10:58.990Z,0
2017-04-04T04:12:12.542Z,0
2017-04-04T04:14:04.353Z,0
2017-04-04T04:15:17.910Z,0
2017-04-04T04:16:31.838Z,0
2017-04-04T04:17:45.399Z,0
2017-04-04T04:18:59.540Z,0
2017-04-04T04:20:13.433Z,0
2017-04-04T04:21:27.126Z,0
2017-04-04T04:22:42.228Z,0
2017-04-04T04:23:58.713Z,0
2017-04-04T04:25:12.556Z,0
2017-04-04T04:26:26.607Z,0
2017-04-04T04:27:40.244Z,0
2017-04-04T04:28:56.501Z,0
2017-04-04T04:30:10.094Z,0
2017-04-04T04:31:23.718Z,0
2017-04-04T04:32:37.238Z,0
2017-04-04T04:33:50.774Z,0
2017-04-04T04:35:04.593Z,0
2017-04-04T04:36:18.790Z,0
2017-04-04T04:37:32.398Z,0
2017-04-04T04:38:45.988Z,0
2017-04-04T04:39:59.844Z,0
2017-04-04T04:41:13.987Z,0
2017-04-04T04:42:27.554Z,0
2017-04-04T04:43:41.075Z,0
2017-04-04T04:44:54.910Z,0
2017-04-04T04:46:08.431Z,0
2017-04-04T04:47:22.297Z,0
2017-04-04T04:48:35.823Z,0
2017-04-04T04:49:49.858Z,0
2017-04-04T04:51:03.738Z,0
2017-04-04T04:52:17.259Z,5
2017-04-04T04:53:31.393Z,5
2017-04-04T04:54:44.974Z,5
2017-04-04T04:55:58.912Z,5
2017-04-04T04:57:12.468Z,5
2017-04-04T04:58:26.964Z,5
2017-04-04T04:59:40.816Z,10
2017-04-04T05:00:54.329Z,10
2017-04-04T05:02:07.860Z,10
2017-04-04T05:03:21.858Z,10
2017-04-04T05:04:35.388Z,15
2017-04-04T05:05:49.207Z,15
2017-04-04T05:07:02.754Z,15
2017-04-04T05:08:16.287Z,15
2017-04-04T05:09:29.945Z,20
2017-04-04T05:10:43.698Z,20
2017-04-04T05:11:57.518Z,20
2017-04-04T05:13:11.151Z,25
2017-04-04T05:14:24.792Z,25
2017-04-04T05:15:38.676Z,25
2017-04-04T05:16:52.336Z,30
2017-04-04T05:18:06.501Z,30
2017-04-04T05:19:20.211Z,30
2017-04-04T05:20:34.809Z,35
2017-04-04T05:21:48.344Z,35
2017-04-04T05:23:02.115Z,40
2017-04-04T05:24:15.758Z,40
2017-04-04T05:25:30.831Z,40
2017-04-04T05:26:44.756Z,45
2017-04-04T05:27:58.297Z,45
2017-04-04T05:29:11.955Z,50
2017-04-04T05:30:25.715Z,50
2017-04-04T05:31:39.302Z,55
2017-04-04T05:32:52.867Z,55
2017-04-04T05:34:06.478Z,60
2017-04-04T05:35:20.283Z,60
2017-04-04T05:36:34.487Z,65
2017-04-04T05:37:48.061Z,65
2017-04-04T05:39:01.616Z,65
2017-04-04T05:40:15.689Z,65
2017-04-04T05:41:30.950Z,70
2017-04-04T05:42:44.806Z,70
2017-04-04T05:43:58.381Z,70
2017-04-04T05:45:14.109Z,75
2017-04-04T05:46:27.705Z,75
2017-04-04T05:47:41.661Z,80
2017-04-04T05:48:56.118Z,80
2017-04-04T05:50:09.749Z,85
2017-04-04T05:51:23.431Z,85
2017-04-04T05:52:37.075Z,90
2017-04-04T05:53:52.169Z,90
2017-04-04T05:55:06.042Z,95
2017-04-04T05:56:19.649Z,95
2017-04-04T05:57:33.537Z,100
2017-04-04T05:58:47.085Z,100
2017-04-04T06:00:01.041Z,105
2017-04-04T06:01:14.877Z,105
2017-04-04T06:02:28.464Z,105
2017-04-04T06:03:42.007Z,110
2017-04-04T06:05:04.952Z,110
2017-04-04T06:06:18.635Z,110
2017-04-04T06:07:33.231Z,115
2017-04-04T06:08:47.140Z,115
2017-04-04T06:10:01.856Z,120
2017-04-04T06:11:16.061Z,120
2017-04-04T06:12:31.285Z,120
2017-04-04T06:13:45.522Z,125
2017-04-04T06:14:59.752Z,125
2017-04-04T06:16:13.656Z,125
2017-04-04T06:17:27.644Z,130
2017-04-04T06:18:41.257Z,130
2017-04-04T06:19:56.816Z,130
2017-04-04T06:21:10.340Z,135
2017-04-04T06:22:23.921Z,135
2017-04-04T06:23:37.480Z,135
2017-04-04T06:24:51.003Z,140
2017-04-04T06:26:04.823Z,140
2017-04-04T06:27:19.960Z,140
2017-04-04T06:28:33.871Z,145
2017-04-04T06:29:47.830Z,145
2017-04-04T06:31:01.670Z,145
2017-04-04T06:32:16.984Z,145
2017-04-04T06:33:30.657Z,150
2017-04-04T06:34:44.511Z,150
2017-04-04T06:35:58.049Z,150
2017-04-04T06:37:11.595Z,150
2017-04-04T06:38:25.456Z,150
2017-04-04T06:39:39.085Z,155
2017-04-04T06:40:53.048Z,155
2017-04-04T06:42:06.978Z,155
2017-04-04T06:43:20.842Z,160
2017-04-04T06:44:34.770Z,160
2017-04-04T06:45:49.131Z,160
2017-04-04T06:47:02.659Z,165
2017-04-04T06:48:16.176Z,165
2017-04-04T06:49:29.804Z,165
2017-04-04T06:50:43.653Z,165
2017-04-04T06:51:57.315Z,165
2017-04-04T06:53:10.838Z,170
2017-04-04T06:54:24.482Z,170
2017-04-04T06:55:38.077Z,170
2017-04-04T06:56:52.233Z,170
2017-04-04T06:58:05.870Z,170
2017-04-04T06:59:19.430Z,170
2017-04-04T07:00:33.026Z,175
2017-04-04T07:01:48.781Z,175
2017-04-04T07:03:02.435Z,175
2017-04-04T07:04:16.087Z,175
2017-04-04T07:05:29.719Z,175
2017-04-04T07:06:43.332Z,180
2017-04-04T07:07:56.887Z,180
2017-04-04T07:09:10.764Z,180
2017-04-04T07:10:24.513Z,180
2017-04-04T07:11:38.079Z,180
2017-04-04T07:12:51.684Z,180
2017-04-04T07:14:05.240Z,180
2017-04-04T07:15:18.783Z,180
2017-04-04T07:16:32.417Z,180
2017-04-04T07:17:46.000Z,180
2017-04-04T07:19:01.114Z,180
2017-04-04T07:20:14.827Z,180
2017-04-04T07:21:29.104Z,180
2017-04-04T07:22:43.112Z,180
2017-04-04T07:23:56.752Z,180
2017-04-04T07:25:10.603Z,180
2017-04-04T07:26:24.243Z,180
2017-04-04T07:27:38.246Z,180
2017-04-04T07:28:51.989Z,180
2017-04-04T07:30:05.524Z,180
2017-04-04T07:31:20.275Z,180
2017-04-04T07:32:33.927Z,180
2017-04-04T07:33:47.866Z,180
2017-04-04T07:35:01.505Z,180
2017-04-04T07:36:15.120Z,185
2017-04-04T07:37:29.528Z,180
2017-04-04T07:38:43.078Z,180
2017-04-04T07:39:57.003Z,180
2017-04-04T07:41:10.587Z,180
2017-04-04T07:42:24.865Z,180
2017-04-04T07:43:39.370Z,180
2017-04-04T07:44:53.577Z,180
2017-04-04T07:46:07.422Z,180
2017-04-04T07:47:21.684Z,180
2017-04-04T07:48:35.925Z,185
2017-04-04T07:49:49.472Z,185
2017-04-04T07:51:03.675Z,180
2017-04-04T07:52:17.558Z,180
2017-04-04T07:53:31.090Z,180
2017-04-04T07:54:44.629Z,180
2017-04-04T07:56:31.939Z,180
2017-04-04T07:57:46.957Z,180
2017-04-04T07:59:00.481Z,180
2017-04-04T08:00:16.694Z,180
2017-04-04T08:01:30.255Z,180
2017-04-04T08:02:44.366Z,180
2017-04-04T08:03:58.212Z,180
2017-04-04T08:05:11.811Z,180
2017-04-04T08:06:25.486Z,185
2017-04-04T08:07:39.348Z,180
2017-04-04T08:08:53.259Z,180
2017-04-04T08:10:07.100Z,180
2017-04-04T08:11:20.630Z,185
2017-04-04T08:12:34.166Z,180
2017-04-04T08:13:47.750Z,180
2017-04-04T08:15:01.659Z,180
2017-04-04T08:16:15.214Z,180
2017-04-04T08:17:28.766Z,180
2017-04-04T08:18:44.888Z,180
2017-04-04T08:19:58.432Z,180
2017-04-04T08:21:12.435Z,180
2017-04-04T08:22:26.614Z,180
2017-04-04T08:23:40.181Z,180
2017-04-04T08:24:54.352Z,180
2017-04-04T08:26:08.187Z,180
2017-04-04T08:27:22.726Z,180
2017-04-04T08:28:36.634Z,180
2017-04-04T08:29:51.158Z,180
2017-04-04T08:31:04.733Z,180
2017-04-04T08:32:18.902Z,180
2017-04-04T08:33:32.966Z,180
2017-04-04T08:34:46.908Z,180
2017-04-04T08:36:00.516Z,180
2017-04-04T08:37:14.067Z,180
2017-04-04T08:38:27.598Z,185
2017-04-04T08:39:45.307Z,185
2017-04-04T08:40:58.840Z,180
2017-04-04T08:42:12.434Z,180
2017-04-04T08:43:25.950Z,180
2017-04-04T08:44:40.582Z,180
2017-04-04T08:45:54.564Z,180
2017-04-04T08:47:08.430Z,180
2017-04-04T08:48:21.989Z,180
2017-04-04T08:49:35.785Z,180
2017-04-04T08:50:49.667Z,180
2017-04-04T08:52:03.686Z,180
2017-04-04T08:53:17.249Z,175
2017-04-04T08:54:31.210Z,175
2017-04-04T08:55:44.807Z,175
2017-04-04T08:56:59.760Z,175
2017-04-04T08:58:13.618Z,175
2017-04-04T08:59:27.616Z,175
2017-04-04T09:00:41.551Z,170
2017-04-04T09:01:55.456Z,170
2017-04-04T09:03:09.609Z,170
2017-04-04T09:04:23.425Z,170
2017-04-04T09:05:37.146Z,170
2017-04-04T09:06:56.997Z,170
2017-04-04T09:08:10.624Z,170
2017-04-04T09:09:24.666Z,170
2017-04-04T09:10:38.268Z,165
2017-04-04T09:11:52.161Z,165
2017-04-04T09:13:05.698Z,165
2017-04-04T09:14:19.217Z,165
2017-04-04T09:15:32.789Z,165
2017-04-04T09:16:46.621Z,165
2017-04-04T09:18:00.133Z,165
2017-04-04T09:19:14.101Z,165
2017-04-04T09:20:27.964Z,165
2017-04-04T09:21:41.756Z,165
2017-04-04T09:22:55.667Z,165
2017-04-04T09:24:11.306Z,165
2017-04-04T09:25:27.691Z,165
2017-04-04T09:26:45.160Z,165
2017-04-04T09:28:01.709Z,165
2017-04-04T09:29:18.777Z,165
2017-04-04T09:30:35.728Z,165
2017-04-04T09:31:51.519Z,165
2017-04-04T09:33:07.778Z,165
2017-04-04T09:34:24.738Z,165
2017-04-04T09:35:42.256Z,165
2017-04-04T09:36:57.912Z,165
2017-04-04T09:38:13.864Z,160
2017-04-04T09:39:30.032Z,160
2017-04-04T09:40:46.444Z,160
2017-04-04T09:42:01.662Z,160
2017-04-04T09:43:18.492Z,160
2017-04-04T09:44:35.364Z,160
2017-04-04T09:45:51.324Z,160
2017-04-04T09:47:07.563Z,160
2017-04-04T09:48:24.170Z,160
2017-04-04T09:49:41.133Z,155
2017-04-04T09:50:56.262Z,155
2017-04-04T09:52:12.215Z,155
2017-04-04T09:53:27.180Z,155
2017-04-04T09:54:44.131Z,155
2017-04-04T09:55:59.253Z,155
2017-04-04T09:57:18.583Z,155
2017-04-04T09:58:34.439Z,160
2017-04-04T09:59:49.969Z,160
2017-04-04T10:01:06.711Z,160
2017-04-04T10:02:36.979Z,160
2017-04-04T10:03:53.241Z,160
2017-04-04T10:05:08.523Z,160
2017-04-04T10:06:25.695Z,160
2017-04-04T10:07:41.960Z,160
2017-04-04T10:08:56.631Z,160
2017-04-04T10:10:14.924Z,160
2017-04-04T10:11:31.543Z,160
2017-04-04T10:12:50.151Z,160
2017-04-04T10:14:04.949Z,155
2017-04-04T10:15:23.319Z,155
2017-04-04T10:16:38.409Z,155
2017-04-04T10:17:53.742Z,155
2017-04-04T10:19:09.832Z,165
2017-04-04T10:20:27.107Z,170
2017-04-04T10:21:43.493Z,175
2017-04-04T10:22:57.471Z,175
2017-04-04T10:24:11.613Z,170
2017-04-04T10:25:25.423Z,165
2017-04-04T10:26:39.012Z,165
2017-04-04T10:27:52.655Z,165
2017-04-04T10:29:06.214Z,175
2017-04-04T10:30:21.546Z,185
2017-04-04T10:31:36.189Z,190
2017-04-04T10:32:51.602Z,180
2017-04-04T10:34:05.751Z,160
2017-04-04T10:35:19.366Z,150
2017-04-04T10:36:34.390Z,150
2017-04-04T10:37:48.035Z,155
2017-04-04T10:39:01.586Z,175
2017-04-04T10:40:16.515Z,170
2017-04-04T10:41:30.055Z,185
2017-04-04T10:42:44.429Z,190
2017-04-04T10:44:12.855Z,185
2017-04-04T10:45:26.711Z,175
2017-04-04T10:46:40.260Z,160
2017-04-04T10:47:53.826Z,160
2017-04-04T10:49:07.589Z,155
2017-04-04T10:50:21.201Z,165
2017-04-04T10:51:36.504Z,165
2017-04-04T10:52:50.650Z,175
2017-04-04T10:54:07.109Z,180
2017-04-04T10:55:20.760Z,185
2017-04-04T10:56:34.329Z,190
2017-04-04T10:57:48.724Z,185
2017-04-04T10:59:02.324Z,175
2017-04-04T11:00:16.618Z,170
2017-04-04T11:01:30.520Z,165
2017-04-04T11:02:47.536Z,170
2017-04-04T11:04:01.079Z,180
2017-04-04T11:05:16.443Z,185
2017-04-04T11:06:30.617Z,160
2017-04-04T11:07:44.194Z,150
2017-04-04T11:08:57.945Z,140
2017-04-04T11:10:11.577Z,130
2017-04-04T11:11:25.201Z,130
2017-04-04T11:12:39.029Z,145
2017-04-04T11:13:53.962Z,150
2017-04-04T11:15:08.977Z,150
2017-04-04T11:16:22.622Z,150
2017-04-04T11:17:36.195Z,155
2017-04-04T11:18:51.512Z,165
2017-04-04T11:20:05.079Z,170
2017-04-04T11:21:18.989Z,160
2017-04-04T11:22:34.042Z,155
2017-04-04T11:23:47.908Z,150
2017-04-04T11:25:01.751Z,145
2017-04-04T11:26:15.705Z,145
2017-04-04T11:27:29.630Z,150
2017-04-04T11:28:43.206Z,150
2017-04-04T11:29:57.115Z,150
2017-04-04T11:31:11.354Z,150
2017-04-04T11:32:24.926Z,150
2017-04-04T11:33:38.866Z,145
2017-04-04T11:34:52.786Z,145
2017-04-04T11:36:06.353Z,145
2017-04-04T11:37:20.741Z,145
2017-04-04T11:38:34.292Z,150
2017-04-04T11:40:00.659Z,160
2017-04-04T11:41:14.270Z,165
2017-04-04T11:42:27.867Z,170
2017-04-04T11:43:41.700Z,170
2017-04-04T11:44:55.580Z,155
2017-04-04T11:46:09.514Z,150
2017-04-04T11:47:23.090Z,155
2017-04-04T11:48:36.629Z,155
2017-04-04T11:49:50.475Z,150
2017-04-04T11:51:04.036Z,145
2017-04-04T11:52:17.662Z,140
2017-04-04T11:53:31.211Z,135
2017-04-04T11:54:47.837Z,135
2017-04-04T11:56:02.362Z,140
2017-04-04T11:57:15.942Z,135
2017-04-04T11:58:29.506Z,140
2017-04-04T11:59:44.518Z,140
2017-04-04T12:00:58.400Z,140
2017-04-04T12:02:12.346Z,140
2017-04-04T12:03:25.925Z,140
2017-04-04T12:04:39.518Z,135
2017-04-04T12:05:53.321Z,140
2017-04-04T12:07:27.566Z,140
2017-04-04T12:08:41.116Z,140
2017-04-04T12:09:54.718Z,140
2017-04-04T12:11:10.860Z,145
2017-04-04T12:12:25.383Z,150
2017-04-04T12:13:39.537Z,155
2017-04-04T12:14:53.462Z,155
2017-04-04T12:16:07.421Z,155
2017-04-04T12:17:21.023Z,150
2017-04-04T12:18:35.105Z,145
2017-04-04T12:19:48.947Z,140
2017-04-04T12:21:02.471Z,140
2017-04-04T12:22:16.699Z,140
2017-04-04T12:23:31.848Z,140
2017-04-04T12:24:45.413Z,140
2017-04-04T12:25:59.642Z,140
2017-04-04T12:27:14.954Z,135
2017-04-04T12:28:28.539Z,135
2017-04-04T12:29:42.102Z,135
2017-04-04T12:30:55.872Z,135
2017-04-04T12:32:10.024Z,135
2017-04-04T12:33:29.491Z,135
2017-04-04T12:34:43.692Z,135
2017-04-04T12:35:57.825Z,140
2017-04-04T12:37:12.888Z,135
2017-04-04T12:38:27.209Z,135
2017-04-04T12:39:41.783Z,140
2017-04-04T12:40:56.149Z,140
2017-04-04T12:42:10.296Z,140
2017-04-04T12:43:25.203Z,140
2017-04-04T12:44:39.140Z,145
2017-04-04T12:45:53.715Z,150
2017-04-04T12:47:08.302Z,155
2017-04-04T12:48:22.757Z,155
2017-04-04T12:49:36.688Z,160
2017-04-04T12:50:50.960Z,165
2017-04-04T12:52:05.938Z,165
2017-04-04T12:53:20.329Z,170
2017-04-04T12:54:35.320Z,170
2017-04-04T12:55:49.639Z,165
2017-04-04T12:57:03.592Z,160
2017-04-04T12:58:17.802Z,145
2017-04-04T12:59:32.203Z,140
2017-04-04T13:00:46.272Z,135
2017-04-04T13:02:00.695Z,125
2017-04-04T13:03:15.941Z,120
2017-04-04T13:04:31.030Z,120
2017-04-04T13:05:46.052Z,125
2017-04-04T13:07:00.328Z,125
2017-04-04T13:08:14.744Z,125
2017-04-04T13:09:30.027Z,135
2017-04-04T13:10:44.269Z,135
2017-04-04T13:11:59.261Z,135
2017-04-04T13:13:13.562Z,125
2017-04-04T13:14:27.794Z,130
2017-04-04T13:15:41.689Z,135
2017-04-04T13:16:56.312Z,135
2017-04-04T13:18:10.986Z,135
2017-04-04T13:19:25.347Z,135
2017-04-04T13:20:39.297Z,135
2017-04-04T13:21:53.317Z,140
2017-04-04T13:23:08.237Z,145
2017-04-04T13:24:22.326Z,140
2017-04-04T13:25:36.893Z,145
2017-04-04T13:26:51.909Z,140
2017-04-04T13:28:09.102Z,140
2017-04-04T13:29:23.908Z,135
2017-04-04T13:30:39.083Z,135
2017-04-04T13:31:53.596Z,135
2017-04-04T13:33:08.580Z,140
2017-04-04T13:34:22.482Z,140
2017-04-04T13:35:36.750Z,140
2017-04-04T13:36:51.042Z,140
2017-04-04T13:38:05.103Z,140
2017-04-04T13:39:19.050Z,140
2017-04-04T13:40:33.376Z,140
2017-04-04T13:41:47.653Z,140
2017-04-04T13:43:02.248Z,140
2017-04-04T13:44:16.479Z,135
2017-04-04T13:45:30.822Z,135
2017-04-04T13:46:44.780Z,130
2017-04-04T13:47:59.691Z,130
2017-04-04T13:49:13.967Z,130
2017-04-04T13:50:28.041Z,120
2017-04-04T13:51:42.741Z,125
2017-04-04T13:52:56.953Z,130
2017-04-04T13:54:11.973Z,130
2017-04-04T13:55:26.237Z,130
2017-04-04T13:56:40.972Z,130
2017-04-04T13:57:55.283Z,135
2017-04-04T13:59:09.468Z,130
2017-04-04T14:00:25.120Z,130
2017-04-04T14:01:39.120Z,125
2017-04-04T14:02:53.574Z,130
2017-04-04T14:04:07.486Z,125
2017-04-04T14:05:21.884Z,125
2017-04-04T14:06:36.166Z,125
2017-04-04T14:07:50.791Z,125
2017-04-04T14:09:05.109Z,125
2017-04-04T14:10:19.151Z,130
2017-04-04T14:11:33.514Z,130
2017-04-04T14:12:47.416Z,130
2017-04-04T14:14:01.381Z,135
2017-04-04T14:15:16.191Z,130
2017-04-04T14:16:30.417Z,130
2017-04-04T14:17:44.375Z,130
2017-04-04T14:18:58.926Z,125
2017-04-04T14:20:13.559Z,125
2017-04-04T14:21:28.190Z,125
2017-04-04T14:22:42.205Z,125
2017-04-04T14:23:56.952Z,120
2017-04-04T14:25:11.654Z,120
2017-04-04T14:26:26.099Z,125
2017-04-04T14:27:40.861Z,125
2017-04-04T14:28:54.872Z,125
2017-04-04T14:30:09.500Z,125
2017-04-04T14:31:24.169Z,125
2017-04-04T14:32:41.014Z,125
2017-04-04T14:33:55.562Z,125
2017-04-04T14:35:10.636Z,125
2017-04-04T14:36:25.272Z,125
2017-04-04T14:37:40.400Z,125
2017-04-04T14:38:54.687Z,125
2017-04-04T14:40:10.158Z,125
2017-04-04T14:41:24.086Z,130
2017-04-04T14:42:38.176Z,130
2017-04-04T14:43:52.412Z,130
2017-04-04T14:45:09.008Z,130
2017-04-04T14:46:23.044Z,125
2017-04-04T14:47:37.016Z,125
2017-04-04T14:48:51.820Z,125
2017-04-04T14:50:05.755Z,115
2017-04-04T14:51:20.101Z,120
2017-04-04T14:52:34.314Z,125
2017-04-04T14:53:48.679Z,125
2017-04-04T14:55:03.735Z,115
2017-04-04T14:56:20.693Z,115
2017-04-04T14:57:36.438Z,120
2017-04-04T14:58:51.224Z,125
2017-04-04T15:00:06.199Z,125
2017-04-04T15:01:22.794Z,125
2017-04-04T15:02:37.772Z,125
2017-04-04T15:03:52.394Z,125
2017-04-04T15:05:07.065Z,125
2017-04-04T15:06:21.601Z,125
2017-04-04T15:07:37.032Z,125
2017-04-04T15:08:51.831Z,120
2017-04-04T15:10:08.752Z,120
2017-04-04T15:11:26.722Z,120
2017-04-04T15:12:40.994Z,120
2017-04-04T15:13:56.666Z,120
2017-04-04T15:15:11.895Z,120
2017-04-04T15:16:27.402Z,120
2017-04-04T15:17:41.561Z,120
2017-04-04T15:19:01.555Z,120
2017-04-04T15:20:17.072Z,120
2017-04-04T15:21:38.186Z,120
2017-04-04T15:23:02.467Z,115
2017-04-04T15:24:23.816Z,115
2017-04-04T15:25:46.478Z,115
2017-04-04T15:27:15.403Z,115
2017-04-04T15:28:32.234Z,115
2017-04-04T15:29:47.415Z,115
2017-04-04T15:31:01.818Z,115
2017-04-04T15:32:16.118Z,115
2017-04-04T15:33:31.119Z,115
2017-04-04T15:34:47.718Z,115
2017-04-04T15:36:03.511Z,115
2017-04-04T15:37:18.909Z,115
2017-04-04T15:38:33.500Z,110
2017-04-04T15:39:50.075Z,110
2017-04-04T15:41:06.198Z,110
2017-04-04T15:42:23.729Z,110
2017-04-04T15:43:39.723Z,110
2017-04-04T15:44:54.600Z,110
2017-04-04T15:46:09.658Z,110
2017-04-04T15:47:28.704Z,110
2017-04-04T15:48:49.378Z,110
2017-04-04T15:50:04.059Z,110
2017-04-04T15:51:18.383Z,105
2017-04-04T15:52:33.003Z,105
2017-04-04T15:55:06.250Z,105
2017-04-04T15:56:21.242Z,105
2017-04-04T15:57:36.842Z,105
2017-04-04T15:58:52.598Z,105
2017-04-04T16:00:11.683Z,105
2017-04-04T16:01:27.136Z,105
2017-04-04T16:02:42.198Z,105
2017-04-04T16:04:01.177Z,100
2017-04-04T16:05:16.072Z,100
2017-04-04T16:06:30.089Z,100
2017-04-04T16:07:45.888Z,100
2017-04-04T16:09:02.445Z,100
2017-04-04T16:10:16.804Z,100
2017-04-04T16:11:31.642Z,100
2017-04-04T16:12:47.186Z,100
2017-04-04T16:14:02.249Z,100
2017-04-04T16:15:16.879Z,95
2017-04-04T16:16:33.940Z,95
2017-04-04T16:17:48.940Z,95
2017-04-04T16:19:03.099Z,95
2017-04-04T16:20:17.433Z,95
2017-04-04T16:21:35.297Z,95
2017-04-04T16:22:49.648Z,95
2017-04-04T16:24:04.886Z,90
2017-04-04T16:25:19.571Z,90
2017-04-04T16:26:35.023Z,90
2017-04-04T16:27:50.636Z,90
2017-04-04T16:29:05.871Z,90
2017-04-04T16:30:19.899Z,85
2017-04-04T16:31:34.510Z,90
2017-04-04T16:32:49.636Z,95
2017-04-04T16:34:04.742Z,90
2017-04-04T16:35:21.067Z,95
2017-04-04T16:36:35.650Z,95
2017-04-04T16:37:53.951Z,95
2017-04-04T16:39:11.387Z,100
2017-04-04T16:40:25.768Z,95
2017-04-04T16:41:40.773Z,95
2017-04-04T16:42:56.368Z,95
2017-04-04T16:44:11.180Z,90
2017-04-04T16:45:25.475Z,90
2017-04-04T16:46:40.060Z,85
2017-04-04T16:47:55.455Z,85
2017-04-04T16:49:10.625Z,75
2017-04-04T16:50:26.034Z,75
2017-04-04T16:51:40.584Z,70
2017-04-04T16:52:55.433Z,65
2017-04-04T16:54:10.321Z,65
2017-04-04T16:55:25.969Z,60
2017-04-04T16:56:41.711Z,55
2017-04-04T16:57:57.332Z,55
2017-04-04T16:59:12.195Z,50
2017-04-04T17:00:27.828Z,50
2017-04-04T17:01:42.744Z,50
2017-04-04T17:02:57.833Z,50
2017-04-04T17:04:13.097Z,50
2017-04-04T17:05:28.893Z,50
2017-04-04T17:06:47.301Z,45
2017-04-04T17:08:02.360Z,45
2017-04-04T17:09:17.801Z,40
2017-04-04T17:10:33.473Z,40
2017-04-04T17:11:48.955Z,40
2017-04-04T17:13:10.392Z,35
2017-04-04T17:14:24.880Z,35
2017-04-04T17:15:39.683Z,30
2017-04-04T17:16:54.541Z,30
2017-04-04T17:18:09.536Z,30
2017-04-04T17:19:24.515Z,30
2017-04-04T17:20:40.070Z,25
2017-04-04T17:21:56.515Z,25
2017-04-04T17:23:11.236Z,20
2017-04-04T17:24:26.061Z,20
2017-04-04T17:25:40.737Z,20
2017-04-04T17:26:56.666Z,20
2017-04-04T17:28:11.579Z,15
2017-04-04T17:29:26.681Z,15
2017-04-04T17:30:41.400Z,15
2017-04-04T17:31:55.535Z,15
2017-04-04T17:33:10.974Z,15
2017-04-04T17:34:26.317Z,15